HSA weather

Santa Fe 443 Helipad
Cuajimalpa, Distrito Federal, Mexico

Public forecast

Using degrees Celsius for public forecast. Weather courtesy of forecast.io.

METAR (pilot weather report)

Closest report is Licenciado Benito Juarez International Airport, 12.0 nm (22.2 km) ENE. Retrieved 2019/08/19 12:45 UTC (55 minutes ago):

MMMX 191245Z 33003KT 6SM FEW020 SCT250 16/12 A3031 NOSIG RMK 8/508 HZY AC

TAF (pilot weather forecast)

Closest forecast is Licenciado Benito Juarez International Airport, 12.0 nm (22.2 km) ENE. Retrieved 2019/08/19 12:10 UTC (1 hour ago):

TAF MMMX 191107Z 1912/2018 03005KT P6SM SCT020 SCT250 TX26/1921Z TN15/1912Z FM191900 08010KT P6SM SCT020 FM192200 08012KT P6SM BKN020CB OVC080 TEMPO 1922/2002 3SM TSRA FM200300 06005KT P6SM SCT020 BKN080 FM201600 06005KT P6SM SCT020 SCT250